Philemon — V2EV6 — position and weather

sailwx.info

Track history (hours):
 
Tides and Currents Weather Stations Pressure Air Temp Water Temp Dewpoint Dewpoint Depression Visibility Wind Speed Wind Dir Waves Ship Positions

Philemon

Last reported at 2017-Sep-19 14:59 UTC. Time now 2017-Sep-19 15:21 UTC.
Position N 53°21' W 006°13'.

Length 158 m; draft 8 m.

Type: Ship (hazmat cat A). MMSI: 305574000.

Date/timePositionNaut miles runAvg speedWind from/ knotsBaromVisibWave heightAir tempDewpointWater temp
2017-Sep-19 14:59N 53°21' W 006°13'0 0.0
2017-Sep-19 14:20N 53°21' W 006°13'0 0.3
2017-Sep-19 13:56N 53°21' W 006°12'0 0.0
2017-Sep-19 13:23N 53°21' W 006°12'0 0.0
2017-Sep-19 11:44N 53°21' W 006°12'0 0.0
2017-Sep-19 09:32N 53°21' W 006°12'0 0.0
2017-Sep-19 09:23N 53°21' W 006°12'0 0.0
2017-Sep-19 08:56N 53°21' W 006°12'0 0.0
2017-Sep-19 08:26N 53°21' W 006°12'0 0.0
2017-Sep-19 07:53N 53°21' W 006°12'0 0.0
2017-Sep-19 07:11N 53°21' W 006°12'0 0.0
2017-Sep-19 05:44N 53°21' W 006°12'0 0.0
2017-Sep-19 04:35N 53°21' W 006°12'0 0.0
2017-Sep-19 04:29N 53°21' W 006°12'0 0.0
2017-Sep-19 03:56N 53°21' W 006°12'0 0.0
2017-Sep-19 03:20N 53°21' W 006°12'0 0.1
2017-Sep-19 00:44N 53°21' W 006°12'0 0.1
2017-Sep-18 21:23N 53°21' W 006°13'0 0.0
2017-Sep-18 20:47N 53°21' W 006°13'0 0.0
2017-Sep-18 17:38N 53°21' W 006°13'0 0.0
2017-Sep-18 15:17N 53°21' W 006°13'0 0.1
2017-Sep-18 14:50N 53°21' W 006°13'0 0.0
2017-Sep-18 07:44N 53°21' W 006°13'0 0.0
2017-Sep-18 04:26N 53°21' W 006°13'0 0.0
2017-Sep-18 03:56N 53°21' W 006°13'0 0.0
2017-Sep-17 22:32N 53°21' W 006°13'0 0.2
2017-Sep-17 22:27N 53°21' W 006°13'1 3.0
2017-Sep-17 22:00N 53°21' W 006°10'510.0
2017-Sep-17 21:30N 53°21' W 006°02'17615.8
2017-Sep-17 10:23N 50°25' W 005°54'716.1
2017-Sep-17 09:58N 50°19' W 005°54'5712.5
2017-Sep-17 05:24N 49°59' W 004°30'716.0
2017-Sep-17 05:00N 50°01' W 004°21'915.7
2017-Sep-17 04:25N 50°03' W 004°07'615.6
2017-Sep-17 04:00N 50°05' W 003°57'815.4
2017-Sep-17 03:30N 50°07' W 003°46'815.3
2017-Sep-17 03:00N 50°10' W 003°35'815.4
2017-Sep-17 02:31N 50°12' W 003°23'815.8
2017-Sep-17 02:01N 50°15' W 003°12'816.2
2017-Sep-17 01:31N 50°18' W 002°60'816.6
2017-Sep-17 01:00N 50°21' W 002°48'1017.3
2017-Sep-17 00:27N 50°24' W 002°33'2518.3
2017-Sep-16 23:04N 50°33' W 001°56'118.6
2017-Sep-16 23:00N 50°33' W 001°54'918.1
2017-Sep-16 22:31N 50°37' W 001°41'816.9
2017-Sep-16 22:01N 50°43' W 001°32'816.9
2017-Sep-16 21:31N 50°47' W 001°20'510.1
2017-Sep-16 21:01N 50°52' W 001°21'5 0.3
2017-Sep-16 05:01N 50°54' W 001°27'0 1.8
2017-Sep-16 04:52N 50°54' W 001°27'2 4.4
2017-Sep-16 04:22N 50°53' W 001°24'3 8.8
2017-Sep-16 04:00N 50°51' W 001°20'4 7.1
2017-Sep-16 03:30N 50°47' W 001°19'611.3
2017-Sep-16 03:00N 50°46' W 001°10'713.6
2017-Sep-16 02:30N 50°43' W 001°00'4 8.4
2017-Sep-16 02:00N 50°39' W 000°59'2 3.8
2017-Sep-16 01:30N 50°38' W 001°02'0 0.6
2017-Sep-16 01:00N 50°38' W 001°02'0 0.1
2017-Sep-16 00:30N 50°38' W 001°02'0 0.1
2017-Sep-15 23:57N 50°38' W 001°02'0 0.0
2017-Sep-15 23:30N 50°38' W 001°02'0 0.0
2017-Sep-15 23:00N 50°38' W 001°02'0 0.0
2017-Sep-15 22:30N 50°38' W 001°02'0 0.0
2017-Sep-15 22:00N 50°38' W 001°02'0 0.0
2017-Sep-15 21:30N 50°38' W 001°02'0 0.0
2017-Sep-15 21:00N 50°38' W 001°02'0 0.0
2017-Sep-15 20:30N 50°38' W 001°02'0 0.0
2017-Sep-15 20:00N 50°38' W 001°02'0 0.0
2017-Sep-15 19:30N 50°38' W 001°02'0 0.0
2017-Sep-15 19:00N 50°38' W 001°02'0 0.1
2017-Sep-15 18:30N 50°38' W 001°02'0 0.2
2017-Sep-15 18:00N 50°38' W 001°02'0 0.1
2017-Sep-15 17:30N 50°38' W 001°02'0 0.1
2017-Sep-15 17:00N 50°38' W 001°02'0 0.0
2017-Sep-15 16:30N 50°38' W 001°02'0 0.0
2017-Sep-15 15:51N 50°38' W 001°02'0 0.0
2017-Sep-15 14:36N 50°38' W 001°02'0 0.0
2017-Sep-15 14:18N 50°38' W 001°02'0 0.0
2017-Sep-15 13:54N 50°38' W 001°02'0 0.1
2017-Sep-15 13:30N 50°38' W 001°02'0 0.0
2017-Sep-15 12:33N 50°38' W 001°02'0 0.1
2017-Sep-15 12:30N 50°38' W 001°02'0 0.0
2017-Sep-15 12:00N 50°38' W 001°02'0 0.2
2017-Sep-15 11:27N 50°38' W 001°02'0 0.1
2017-Sep-15 11:00N 50°38' W 001°02'0 0.0
2017-Sep-15 10:30N 50°38' W 001°02'0 0.0
2017-Sep-15 10:00N 50°38' W 001°02'0 0.5
2017-Sep-15 09:31N 50°37' W 001°02'510.1
2017-Sep-15 09:00N 50°36' W 000°54'1113.0
2017-Sep-15 08:09N 50°35' W 000°37'212.4
2017-Sep-15 08:00N 50°35' W 000°34'612.4
2017-Sep-15 07:30N 50°34' W 000°24'612.3
2017-Sep-15 07:00N 50°33' W 000°15'612.0
2017-Sep-15 06:30N 50°32' W 000°05'611.9
2017-Sep-15 06:00N 50°33' E 000°04'611.6
2017-Sep-15 05:30N 50°34' E 000°13'611.3
2017-Sep-15 05:00N 50°36' E 000°21'611.1
2017-Sep-15 04:30N 50°37' E 000°30'510.8
2017-Sep-15 04:00N 50°39' E 000°38'510.9
2017-Sep-15 03:30N 50°42' E 000°45'611.1
2017-Sep-15 03:00N 50°45' E 000°52'611.6
2017-Sep-15 02:29N 50°49' E 001°00'1012.3
2017-Sep-15 01:41N 50°55' E 001°12'212.9
2017-Sep-15 01:30N 50°56' E 001°15'713.3
2017-Sep-15 01:00N 51°01' E 001°22'713.4
2017-Sep-15 00:30N 51°06' E 001°31'613.2
2017-Sep-15 00:00N 51°10' E 001°39'612.6
2017-Sep-14 23:31N 51°14' E 001°46'612.3
2017-Sep-14 23:00N 51°19' E 001°51'612.4
2017-Sep-14 22:30N 51°25' E 001°56'611.8
2017-Sep-14 22:00N 51°30' E 002°01'611.6
2017-Sep-14 21:30N 51°34' E 002°07'611.5
2017-Sep-14 21:00N 51°38' E 002°14'611.3
2017-Sep-14 20:29N 51°42' E 002°20'5610.1
2017-Sep-14 14:58N 52°02' E 003°45'611.9
2017-Sep-14 14:30N 52°02' E 003°54'611.5
2017-Sep-14 14:00N 51°60' E 004°02'3 5.7
2017-Sep-14 13:30N 51°57' E 004°05'1 2.5
2017-Sep-14 12:59N 51°57' E 004°03'0 0.0
2017-Sep-14 12:26N 51°57' E 004°03'0 0.0
2017-Sep-14 11:59N 51°57' E 004°03'0 0.0
2017-Sep-14 11:26N 51°57' E 004°03'0 0.0
2017-Sep-14 10:44N 51°57' E 004°03'0 0.0
2017-Sep-14 10:30N 51°57' E 004°03'0 0.0
2017-Sep-14 10:00N 51°57' E 004°03'0 0.0
2017-Sep-14 09:30N 51°57' E 004°03'0 0.0
2017-Sep-14 09:00N 51°57' E 004°03'0 0.0
2017-Sep-14 08:30N 51°57' E 004°03'0 0.0
2017-Sep-14 08:00N 51°57' E 004°03'0 0.0
2017-Sep-14 07:30N 51°57' E 004°03'0 0.0
2017-Sep-14 07:00N 51°57' E 004°03'0 0.0
2017-Sep-14 06:30N 51°57' E 004°03'0 0.0
2017-Sep-14 06:00N 51°57' E 004°03'0 0.0
2017-Sep-14 05:30N 51°57' E 004°03'0 0.0
2017-Sep-14 05:00N 51°57' E 004°03'0 0.0
2017-Sep-14 04:30N 51°57' E 004°03'0 0.0
2017-Sep-14 04:00N 51°57' E 004°03'0 0.0
2017-Sep-14 03:30N 51°57' E 004°03'0 0.0
2017-Sep-14 03:00N 51°57' E 004°03'0 0.0
2017-Sep-14 02:30N 51°57' E 004°03'0 0.0
2017-Sep-14 02:00N 51°57' E 004°03'0 0.0
2017-Sep-14 01:30N 51°57' E 004°03'1 2.3
2017-Sep-14 01:00N 51°58' E 004°04'2 3.3
2017-Sep-14 00:30N 51°59' E 004°02'0 0.0
2017-Sep-14 00:00N 51°59' E 004°02'0 0.0
2017-Sep-13 23:30N 51°59' E 004°02'0 0.0
2017-Sep-13 23:00N 51°59' E 004°02'0 0.0
2017-Sep-13 22:30N 51°59' E 004°02'0 0.0
2017-Sep-13 22:00N 51°59' E 004°02'0 0.0
2017-Sep-13 21:30N 51°59' E 004°02'0 0.0
2017-Sep-13 21:00N 51°59' E 004°02'0 0.0
2017-Sep-13 20:30N 51°59' E 004°02'0 0.0
2017-Sep-13 20:00N 51°59' E 004°02'0 0.0
2017-Sep-13 19:30N 51°59' E 004°02'0 0.0
2017-Sep-13 19:00N 51°59' E 004°02'0 0.0
2017-Sep-13 18:30N 51°59' E 004°02'0 0.0
2017-Sep-13 18:00N 51°59' E 004°02'0 0.0
2017-Sep-13 17:30N 51°59' E 004°02'0 0.0
2017-Sep-13 17:00N 51°59' E 004°02'0 0.0
2017-Sep-13 16:30N 51°59' E 004°02'0 0.0
2017-Sep-13 15:59N 51°59' E 004°02'0 0.0
2017-Sep-13 15:30N 51°59' E 004°02'0 0.0
2017-Sep-13 15:00N 51°59' E 004°02'0 0.0
2017-Sep-13 14:30N 51°59' E 004°02'0 0.0
2017-Sep-13 14:00N 51°59' E 004°02'0 0.0
2017-Sep-13 13:29N 51°59' E 004°02'0 0.0
2017-Sep-13 13:00N 51°59' E 004°02'0 0.0
2017-Sep-13 12:30N 51°59' E 004°02'0 0.0
2017-Sep-13 12:00N 51°59' E 004°02'0 0.0
2017-Sep-13 11:30N 51°59' E 004°02'0 0.0
2017-Sep-13 11:00N 51°59' E 004°02'0 0.0
2017-Sep-13 10:30N 51°59' E 004°02'0 0.0
2017-Sep-13 10:00N 51°59' E 004°02'0 0.0
2017-Sep-13 09:30N 51°59' E 004°02'0 0.0
2017-Sep-13 08:59N 51°59' E 004°02'0 0.0
2017-Sep-13 08:30N 51°59' E 004°02'0 0.0
2017-Sep-13 08:00N 51°59' E 004°02'0 0.0
2017-Sep-13 07:30N 51°59' E 004°02'0 0.0
2017-Sep-13 07:00N 51°59' E 004°02'0 0.0
2017-Sep-13 06:30N 51°59' E 004°02'0 0.0
2017-Sep-13 06:00N 51°59' E 004°02'0 0.0
2017-Sep-13 05:30N 51°59' E 004°02'0 0.0
2017-Sep-13 05:00N 51°59' E 004°02'0 0.0
2017-Sep-13 04:30N 51°59' E 004°02'0 0.0
2017-Sep-13 04:00N 51°59' E 004°02'0 0.0
2017-Sep-13 03:30N 51°59' E 004°02'0 0.0
2017-Sep-13 03:00N 51°59' E 004°02'0 0.0
2017-Sep-13 02:30N 51°59' E 004°02'0 0.0
2017-Sep-13 02:00N 51°59' E 004°02'0 0.0
2017-Sep-13 01:30N 51°59' E 004°02'0 0.0
2017-Sep-13 01:00N 51°59' E 004°02'0 0.0
2017-Sep-13 00:30N 51°59' E 004°02'0 0.0
2017-Sep-13 00:00N 51°59' E 004°02'0 0.0
2017-Sep-12 23:30N 51°59' E 004°02'0 0.0
2017-Sep-12 23:00N 51°59' E 004°02'0 0.0
2017-Sep-12 22:30N 51°59' E 004°02'0 0.0
2017-Sep-12 22:00N 51°59' E 004°02'0 0.0
2017-Sep-12 21:30N 51°59' E 004°02'0 0.0
2017-Sep-12 21:00N 51°59' E 004°02'0 0.0
2017-Sep-12 20:29N 51°59' E 004°02'0 0.0
2017-Sep-12 20:00N 51°59' E 004°02'0 0.0
2017-Sep-12 19:30N 51°59' E 004°02'0 0.0
2017-Sep-12 19:00N 51°59' E 004°02'0 0.0
2017-Sep-12 18:30N 51°59' E 004°02'0 0.0
2017-Sep-12 18:00N 51°59' E 004°02'0 0.0
2017-Sep-12 17:30N 51°59' E 004°02'0 0.0
2017-Sep-12 17:00N 51°59' E 004°02'0 0.0
2017-Sep-12 16:30N 51°59' E 004°02'0 0.0
2017-Sep-12 16:00N 51°59' E 004°02'0 0.0
2017-Sep-12 15:30N 51°59' E 004°02'0 0.0
2017-Sep-12 15:00N 51°59' E 004°02'0 0.0
2017-Sep-12 14:30N 51°59' E 004°02'0 0.0
2017-Sep-12 14:00N 51°59' E 004°02'0 0.0
2017-Sep-12 13:30N 51°59' E 004°02'0 0.0
2017-Sep-12 13:00N 51°59' E 004°02'0 0.0
2017-Sep-12 12:30N 51°59' E 004°02'0 0.0
2017-Sep-12 12:00N 51°59' E 004°02'0 0.0
2017-Sep-12 11:30N 51°59' E 004°02'0 0.0
2017-Sep-12 11:00N 51°59' E 004°02'0 0.0
2017-Sep-12 10:30N 51°59' E 004°02'0 0.0
2017-Sep-12 10:00N 51°59' E 004°02'0 0.0
2017-Sep-12 09:30N 51°59' E 004°02'0 0.0
2017-Sep-12 09:00N 51°59' E 004°02'0 0.0
2017-Sep-12 08:30N 51°59' E 004°02'0 0.0
2017-Sep-12 08:00N 51°59' E 004°02'0 0.7
2017-Sep-12 07:30N 51°58' E 004°02'2 3.2
2017-Sep-12 07:00N 51°58' E 004°04'0 0.0
2017-Sep-12 06:30N 51°58' E 004°04'0 0.0
2017-Sep-12 06:00N 51°58' E 004°04'0 0.0
2017-Sep-12 05:30N 51°58' E 004°04'0 0.0
2017-Sep-12 05:00N 51°58' E 004°04'0 0.0
2017-Sep-12 04:30N 51°58' E 004°04'0 0.0
2017-Sep-12 04:00N 51°58' E 004°04'0 0.0
2017-Sep-12 03:30N 51°58' E 004°04'0 0.0
2017-Sep-12 03:00N 51°58' E 004°04'0 0.0
2017-Sep-12 02:30N 51°58' E 004°04'0 0.0
2017-Sep-12 02:00N 51°58' E 004°04'0 0.0
2017-Sep-12 01:30N 51°58' E 004°04'0 0.0
2017-Sep-12 01:00N 51°58' E 004°04'0 0.0
2017-Sep-12 00:30N 51°58' E 004°04'0 0.0
2017-Sep-12 00:00N 51°58' E 004°04'0 0.0
2017-Sep-11 23:30N 51°58' E 004°04'0 0.0
2017-Sep-11 23:00N 51°58' E 004°04'0 0.0
2017-Sep-11 22:30N 51°58' E 004°04'0 0.0
2017-Sep-11 22:00N 51°58' E 004°04'0 0.0
2017-Sep-11 21:30N 51°58' E 004°04'0 0.0
2017-Sep-11 21:00N 51°58' E 004°04'0 0.1
2017-Sep-11 20:30N 51°58' E 004°04'2 3.1
2017-Sep-11 20:01N 51°59' E 004°05'4 8.4
2017-Sep-11 19:31N 51°57' E 004°11'611.0
2017-Sep-11 19:01N 51°54' E 004°18'4 7.5
2017-Sep-11 18:31N 51°53' E 004°24'1 1.2
2017-Sep-11 18:00N 51°53' E 004°25'0 0.0
2017-Sep-11 17:30N 51°53' E 004°25'0 0.0
2017-Sep-11 17:00N 51°53' E 004°25'0 0.0
2017-Sep-11 16:30N 51°53' E 004°25'0 0.0
2017-Sep-11 16:00N 51°53' E 004°25'0 0.0
2017-Sep-11 15:30N 51°53' E 004°25'0 0.0
2017-Sep-11 15:00N 51°53' E 004°25'0 0.0
2017-Sep-11 14:30N 51°53' E 004°25'0 0.0
2017-Sep-11 14:00N 51°53' E 004°25'0 0.0
2017-Sep-11 13:30N 51°53' E 004°25'0 0.0
2017-Sep-11 13:00N 51°53' E 004°25'0 0.0
2017-Sep-11 12:30N 51°53' E 004°25'0 0.0
2017-Sep-11 12:00N 51°53' E 004°25'0 0.0
2017-Sep-11 11:30N 51°53' E 004°25'0 0.0
2017-Sep-11 11:00N 51°53' E 004°25'0 0.0
2017-Sep-11 10:30N 51°53' E 004°25'0 0.0
2017-Sep-11 10:00N 51°53' E 004°25'0 0.0
2017-Sep-11 09:30N 51°53' E 004°25'0 0.0
2017-Sep-11 09:00N 51°53' E 004°25'0 0.0
2017-Sep-11 08:30N 51°53' E 004°25'0 0.0
2017-Sep-11 08:00N 51°53' E 004°25'0 0.0
2017-Sep-11 07:30N 51°53' E 004°25'0 0.0
2017-Sep-11 06:59N 51°53' E 004°25'0 0.0
2017-Sep-11 06:23N 51°53' E 004°25'0 0.0
2017-Sep-11 05:59N 51°53' E 004°25'0 0.0
2017-Sep-11 05:29N 51°53' E 004°25'1 1.8
2017-Sep-11 05:00N 51°53' E 004°24'4 8.6
2017-Sep-11 04:30N 51°54' E 004°17'715.0
2017-Sep-11 04:01N 51°58' E 004°08'815.9
2017-Sep-11 03:31N 51°60' E 003°55'5 9.1
2017-Sep-11 03:00N 52°00' E 003°48'5712.0
2017-Sep-10 22:17N 51°36' E 002°24'412.8
2017-Sep-10 21:59N 51°33' E 002°20'612.4
2017-Sep-10 21:30N 51°29' E 002°14'712.8
2017-Sep-10 20:59N 51°23' E 002°07'712.6
2017-Sep-10 20:26N 51°17' E 002°05'512.6
2017-Sep-10 20:00N 51°13' E 001°59'613.0
2017-Sep-10 19:30N 51°09' E 001°50'713.3
2017-Sep-10 19:00N 51°05' E 001°42'713.7
2017-Sep-10 18:31N 51°01' E 001°34'7014.9
2017-Sep-10 13:51N 50°22' E 000°02'616.7
2017-Sep-10 13:29N 50°20' W 000°07'4718.5
2017-Sep-10 10:57N 50°07' W 001°17'919.7
2017-Sep-10 10:30N 50°04' W 001°30'1020.1
2017-Sep-10 10:01N 50°01' W 001°44'1019.9
2017-Sep-10 09:30N 49°58' W 001°59'5118.0
2017-Sep-10 06:39N 49°41' W 003°14'217.0
2017-Sep-10 06:31N 49°40' W 003°18'  
Track history (hours):
 
Tides and Currents Weather Stations Pressure Air Temp Water Temp Dewpoint Dewpoint Depression Visibility Wind Speed Wind Dir Waves Ship Positions

Philemon

Last reported at 2017-Sep-19 14:59 UTC. Time now 2017-Sep-19 15:21 UTC.
Position N 53°21' W 006°13'.

Length 158 m; draft 8 m.

Type: Ship (hazmat cat A). MMSI: 305574000.

Date/timePositionNaut miles runAvg speedWind from/ knotsBaromVisibWave heightAir tempDewpointWater temp
2017-Sep-19 14:59N 53°21' W 006°13'0 0.0
2017-Sep-19 14:20N 53°21' W 006°13'0 0.3
2017-Sep-19 13:56N 53°21' W 006°12'0 0.0
2017-Sep-19 13:23N 53°21' W 006°12'0 0.0
2017-Sep-19 11:44N 53°21' W 006°12'0 0.0
2017-Sep-19 09:32N 53°21' W 006°12'0 0.0
2017-Sep-19 09:23N 53°21' W 006°12'0 0.0
2017-Sep-19 08:56N 53°21' W 006°12'0 0.0
2017-Sep-19 08:26N 53°21' W 006°12'0 0.0
2017-Sep-19 07:53N 53°21' W 006°12'0 0.0
2017-Sep-19 07:11N 53°21' W 006°12'0 0.0
2017-Sep-19 05:44N 53°21' W 006°12'0 0.0
2017-Sep-19 04:35N 53°21' W 006°12'0 0.0
2017-Sep-19 04:29N 53°21' W 006°12'0 0.0
2017-Sep-19 03:56N 53°21' W 006°12'0 0.0
2017-Sep-19 03:20N 53°21' W 006°12'0 0.1
2017-Sep-19 00:44N 53°21' W 006°12'0 0.1
2017-Sep-18 21:23N 53°21' W 006°13'0 0.0
2017-Sep-18 20:47N 53°21' W 006°13'0 0.0
2017-Sep-18 17:38N 53°21' W 006°13'0 0.0
2017-Sep-18 15:17N 53°21' W 006°13'0 0.1
2017-Sep-18 14:50N 53°21' W 006°13'0 0.0
2017-Sep-18 07:44N 53°21' W 006°13'0 0.0
2017-Sep-18 04:26N 53°21' W 006°13'0 0.0
2017-Sep-18 03:56N 53°21' W 006°13'0 0.0
2017-Sep-17 22:32N 53°21' W 006°13'0 0.2
2017-Sep-17 22:27N 53°21' W 006°13'1 3.0
2017-Sep-17 22:00N 53°21' W 006°10'510.0
2017-Sep-17 21:30N 53°21' W 006°02'17615.8
2017-Sep-17 10:23N 50°25' W 005°54'716.1
2017-Sep-17 09:58N 50°19' W 005°54'5712.5
2017-Sep-17 05:24N 49°59' W 004°30'716.0
2017-Sep-17 05:00N 50°01' W 004°21'915.7
2017-Sep-17 04:25N 50°03' W 004°07'615.6
2017-Sep-17 04:00N 50°05' W 003°57'815.4
2017-Sep-17 03:30N 50°07' W 003°46'815.3
2017-Sep-17 03:00N 50°10' W 003°35'815.4
2017-Sep-17 02:31N 50°12' W 003°23'815.8
2017-Sep-17 02:01N 50°15' W 003°12'816.2
2017-Sep-17 01:31N 50°18' W 002°60'816.6
2017-Sep-17 01:00N 50°21' W 002°48'1017.3
2017-Sep-17 00:27N 50°24' W 002°33'2518.3
2017-Sep-16 23:04N 50°33' W 001°56'118.6
2017-Sep-16 23:00N 50°33' W 001°54'918.1
2017-Sep-16 22:31N 50°37' W 001°41'816.9
2017-Sep-16 22:01N 50°43' W 001°32'816.9
2017-Sep-16 21:31N 50°47' W 001°20'510.1
2017-Sep-16 21:01N 50°52' W 001°21'5 0.3
2017-Sep-16 05:01N 50°54' W 001°27'0 1.8
2017-Sep-16 04:52N 50°54' W 001°27'2 4.4
2017-Sep-16 04:22N 50°53' W 001°24'3 8.8
2017-Sep-16 04:00N 50°51' W 001°20'4 7.1
2017-Sep-16 03:30N 50°47' W 001°19'611.3
2017-Sep-16 03:00N 50°46' W 001°10'713.6
2017-Sep-16 02:30N 50°43' W 001°00'4 8.4
2017-Sep-16 02:00N 50°39' W 000°59'2 3.8
2017-Sep-16 01:30N 50°38' W 001°02'0 0.6
2017-Sep-16 01:00N 50°38' W 001°02'0 0.1
2017-Sep-16 00:30N 50°38' W 001°02'0 0.1
2017-Sep-15 23:57N 50°38' W 001°02'0 0.0
2017-Sep-15 23:30N 50°38' W 001°02'0 0.0
2017-Sep-15 23:00N 50°38' W 001°02'0 0.0
2017-Sep-15 22:30N 50°38' W 001°02'0 0.0
2017-Sep-15 22:00N 50°38' W 001°02'0 0.0
2017-Sep-15 21:30N 50°38' W 001°02'0 0.0
2017-Sep-15 21:00N 50°38' W 001°02'0 0.0
2017-Sep-15 20:30N 50°38' W 001°02'0 0.0
2017-Sep-15 20:00N 50°38' W 001°02'0 0.0
2017-Sep-15 19:30N 50°38' W 001°02'0 0.0
2017-Sep-15 19:00N 50°38' W 001°02'0 0.1
2017-Sep-15 18:30N 50°38' W 001°02'0 0.2
2017-Sep-15 18:00N 50°38' W 001°02'0 0.1
2017-Sep-15 17:30N 50°38' W 001°02'0 0.1
2017-Sep-15 17:00N 50°38' W 001°02'0 0.0
2017-Sep-15 16:30N 50°38' W 001°02'0 0.0
2017-Sep-15 15:51N 50°38' W 001°02'0 0.0
2017-Sep-15 14:36N 50°38' W 001°02'0 0.0
2017-Sep-15 14:18N 50°38' W 001°02'0 0.0
2017-Sep-15 13:54N 50°38' W 001°02'0 0.1
2017-Sep-15 13:30N 50°38' W 001°02'0 0.0
2017-Sep-15 12:33N 50°38' W 001°02'0 0.1
2017-Sep-15 12:30N 50°38' W 001°02'0 0.0
2017-Sep-15 12:00N 50°38' W 001°02'0 0.2
2017-Sep-15 11:27N 50°38' W 001°02'0 0.1
2017-Sep-15 11:00N 50°38' W 001°02'0 0.0
2017-Sep-15 10:30N 50°38' W 001°02'0 0.0
2017-Sep-15 10:00N 50°38' W 001°02'0 0.5
2017-Sep-15 09:31N 50°37' W 001°02'510.1
2017-Sep-15 09:00N 50°36' W 000°54'1113.0
2017-Sep-15 08:09N 50°35' W 000°37'212.4
2017-Sep-15 08:00N 50°35' W 000°34'612.4
2017-Sep-15 07:30N 50°34' W 000°24'612.3
2017-Sep-15 07:00N 50°33' W 000°15'612.0
2017-Sep-15 06:30N 50°32' W 000°05'611.9
2017-Sep-15 06:00N 50°33' E 000°04'611.6
2017-Sep-15 05:30N 50°34' E 000°13'611.3
2017-Sep-15 05:00N 50°36' E 000°21'611.1
2017-Sep-15 04:30N 50°37' E 000°30'510.8
2017-Sep-15 04:00N 50°39' E 000°38'510.9
2017-Sep-15 03:30N 50°42' E 000°45'611.1
2017-Sep-15 03:00N 50°45' E 000°52'611.6
2017-Sep-15 02:29N 50°49' E 001°00'1012.3
2017-Sep-15 01:41N 50°55' E 001°12'212.9
2017-Sep-15 01:30N 50°56' E 001°15'713.3
2017-Sep-15 01:00N 51°01' E 001°22'713.4
2017-Sep-15 00:30N 51°06' E 001°31'613.2
2017-Sep-15 00:00N 51°10' E 001°39'612.6
2017-Sep-14 23:31N 51°14' E 001°46'612.3
2017-Sep-14 23:00N 51°19' E 001°51'612.4
2017-Sep-14 22:30N 51°25' E 001°56'611.8
2017-Sep-14 22:00N 51°30' E 002°01'611.6
2017-Sep-14 21:30N 51°34' E 002°07'611.5
2017-Sep-14 21:00N 51°38' E 002°14'611.3
2017-Sep-14 20:29N 51°42' E 002°20'5610.1
2017-Sep-14 14:58N 52°02' E 003°45'611.9
2017-Sep-14 14:30N 52°02' E 003°54'611.5
2017-Sep-14 14:00N 51°60' E 004°02'3 5.7
2017-Sep-14 13:30N 51°57' E 004°05'1 2.5
2017-Sep-14 12:59N 51°57' E 004°03'0 0.0
2017-Sep-14 12:26N 51°57' E 004°03'0 0.0
2017-Sep-14 11:59N 51°57' E 004°03'0 0.0
2017-Sep-14 11:26N 51°57' E 004°03'0 0.0
2017-Sep-14 10:44N 51°57' E 004°03'0 0.0
2017-Sep-14 10:30N 51°57' E 004°03'0 0.0
2017-Sep-14 10:00N 51°57' E 004°03'0 0.0
2017-Sep-14 09:30N 51°57' E 004°03'0 0.0
2017-Sep-14 09:00N 51°57' E 004°03'0 0.0
2017-Sep-14 08:30N 51°57' E 004°03'0 0.0
2017-Sep-14 08:00N 51°57' E 004°03'0 0.0
2017-Sep-14 07:30N 51°57' E 004°03'0 0.0
2017-Sep-14 07:00N 51°57' E 004°03'0 0.0
2017-Sep-14 06:30N 51°57' E 004°03'0 0.0
2017-Sep-14 06:00N 51°57' E 004°03'0 0.0
2017-Sep-14 05:30N 51°57' E 004°03'0 0.0
2017-Sep-14 05:00N 51°57' E 004°03'0 0.0
2017-Sep-14 04:30N 51°57' E 004°03'0 0.0
2017-Sep-14 04:00N 51°57' E 004°03'0 0.0
2017-Sep-14 03:30N 51°57' E 004°03'0 0.0
2017-Sep-14 03:00N 51°57' E 004°03'0 0.0
2017-Sep-14 02:30N 51°57' E 004°03'0 0.0
2017-Sep-14 02:00N 51°57' E 004°03'0 0.0
2017-Sep-14 01:30N 51°57' E 004°03'1 2.3
2017-Sep-14 01:00N 51°58' E 004°04'2 3.3
2017-Sep-14 00:30N 51°59' E 004°02'0 0.0
2017-Sep-14 00:00N 51°59' E 004°02'0 0.0
2017-Sep-13 23:30N 51°59' E 004°02'0 0.0
2017-Sep-13 23:00N 51°59' E 004°02'0 0.0
2017-Sep-13 22:30N 51°59' E 004°02'0 0.0
2017-Sep-13 22:00N 51°59' E 004°02'0 0.0
2017-Sep-13 21:30N 51°59' E 004°02'0 0.0
2017-Sep-13 21:00N 51°59' E 004°02'0 0.0
2017-Sep-13 20:30N 51°59' E 004°02'0 0.0
2017-Sep-13 20:00N 51°59' E 004°02'0 0.0
2017-Sep-13 19:30N 51°59' E 004°02'0 0.0
2017-Sep-13 19:00N 51°59' E 004°02'0 0.0
2017-Sep-13 18:30N 51°59' E 004°02'0 0.0
2017-Sep-13 18:00N 51°59' E 004°02'0 0.0
2017-Sep-13 17:30N 51°59' E 004°02'0 0.0
2017-Sep-13 17:00N 51°59' E 004°02'0 0.0
2017-Sep-13 16:30N 51°59' E 004°02'0 0.0
2017-Sep-13 15:59N 51°59' E 004°02'0 0.0
2017-Sep-13 15:30N 51°59' E 004°02'0 0.0
2017-Sep-13 15:00N 51°59' E 004°02'0 0.0
2017-Sep-13 14:30N 51°59' E 004°02'0 0.0
2017-Sep-13 14:00N 51°59' E 004°02'0 0.0
2017-Sep-13 13:29N 51°59' E 004°02'0 0.0
2017-Sep-13 13:00N 51°59' E 004°02'0 0.0
2017-Sep-13 12:30N 51°59' E 004°02'0 0.0
2017-Sep-13 12:00N 51°59' E 004°02'0 0.0
2017-Sep-13 11:30N 51°59' E 004°02'0 0.0
2017-Sep-13 11:00N 51°59' E 004°02'0 0.0
2017-Sep-13 10:30N 51°59' E 004°02'0 0.0
2017-Sep-13 10:00N 51°59' E 004°02'0 0.0
2017-Sep-13 09:30N 51°59' E 004°02'0 0.0
2017-Sep-13 08:59N 51°59' E 004°02'0 0.0
2017-Sep-13 08:30N 51°59' E 004°02'0 0.0
2017-Sep-13 08:00N 51°59' E 004°02'0 0.0
2017-Sep-13 07:30N 51°59' E 004°02'0 0.0
2017-Sep-13 07:00N 51°59' E 004°02'0 0.0
2017-Sep-13 06:30N 51°59' E 004°02'0 0.0
2017-Sep-13 06:00N 51°59' E 004°02'0 0.0
2017-Sep-13 05:30N 51°59' E 004°02'0 0.0
2017-Sep-13 05:00N 51°59' E 004°02'0 0.0
2017-Sep-13 04:30N 51°59' E 004°02'0 0.0
2017-Sep-13 04:00N 51°59' E 004°02'0 0.0
2017-Sep-13 03:30N 51°59' E 004°02'0 0.0
2017-Sep-13 03:00N 51°59' E 004°02'0 0.0
2017-Sep-13 02:30N 51°59' E 004°02'0 0.0
2017-Sep-13 02:00N 51°59' E 004°02'0 0.0
2017-Sep-13 01:30N 51°59' E 004°02'0 0.0
2017-Sep-13 01:00N 51°59' E 004°02'0 0.0
2017-Sep-13 00:30N 51°59' E 004°02'0 0.0
2017-Sep-13 00:00N 51°59' E 004°02'0 0.0
2017-Sep-12 23:30N 51°59' E 004°02'0 0.0
2017-Sep-12 23:00N 51°59' E 004°02'0 0.0
2017-Sep-12 22:30N 51°59' E 004°02'0 0.0
2017-Sep-12 22:00N 51°59' E 004°02'0 0.0
2017-Sep-12 21:30N 51°59' E 004°02'0 0.0
2017-Sep-12 21:00N 51°59' E 004°02'0 0.0
2017-Sep-12 20:29N 51°59' E 004°02'0 0.0
2017-Sep-12 20:00N 51°59' E 004°02'0 0.0
2017-Sep-12 19:30N 51°59' E 004°02'0 0.0
2017-Sep-12 19:00N 51°59' E 004°02'0 0.0
2017-Sep-12 18:30N 51°59' E 004°02'0 0.0
2017-Sep-12 18:00N 51°59' E 004°02'0 0.0
2017-Sep-12 17:30N 51°59' E 004°02'0 0.0
2017-Sep-12 17:00N 51°59' E 004°02'0 0.0
2017-Sep-12 16:30N 51°59' E 004°02'0 0.0
2017-Sep-12 16:00N 51°59' E 004°02'0 0.0
2017-Sep-12 15:30N 51°59' E 004°02'0 0.0
2017-Sep-12 15:00N 51°59' E 004°02'0 0.0
2017-Sep-12 14:30N 51°59' E 004°02'0 0.0
2017-Sep-12 14:00N 51°59' E 004°02'0 0.0
2017-Sep-12 13:30N 51°59' E 004°02'0 0.0
2017-Sep-12 13:00N 51°59' E 004°02'0 0.0
2017-Sep-12 12:30N 51°59' E 004°02'0 0.0
2017-Sep-12 12:00N 51°59' E 004°02'0 0.0
2017-Sep-12 11:30N 51°59' E 004°02'0 0.0
2017-Sep-12 11:00N 51°59' E 004°02'0 0.0
2017-Sep-12 10:30N 51°59' E 004°02'0 0.0
2017-Sep-12 10:00N 51°59' E 004°02'0 0.0
2017-Sep-12 09:30N 51°59' E 004°02'0 0.0
2017-Sep-12 09:00N 51°59' E 004°02'0 0.0
2017-Sep-12 08:30N 51°59' E 004°02'0 0.0
2017-Sep-12 08:00N 51°59' E 004°02'0 0.7
2017-Sep-12 07:30N 51°58' E 004°02'2 3.2
2017-Sep-12 07:00N 51°58' E 004°04'0 0.0
2017-Sep-12 06:30N 51°58' E 004°04'0 0.0
2017-Sep-12 06:00N 51°58' E 004°04'0 0.0
2017-Sep-12 05:30N 51°58' E 004°04'0 0.0
2017-Sep-12 05:00N 51°58' E 004°04'0 0.0
2017-Sep-12 04:30N 51°58' E 004°04'0 0.0
2017-Sep-12 04:00N 51°58' E 004°04'0 0.0
2017-Sep-12 03:30N 51°58' E 004°04'0 0.0
2017-Sep-12 03:00N 51°58' E 004°04'0 0.0
2017-Sep-12 02:30N 51°58' E 004°04'0 0.0
2017-Sep-12 02:00N 51°58' E 004°04'0 0.0
2017-Sep-12 01:30N 51°58' E 004°04'0 0.0
2017-Sep-12 01:00N 51°58' E 004°04'0 0.0
2017-Sep-12 00:30N 51°58' E 004°04'0 0.0
2017-Sep-12 00:00N 51°58' E 004°04'0 0.0
2017-Sep-11 23:30N 51°58' E 004°04'0 0.0
2017-Sep-11 23:00N 51°58' E 004°04'0 0.0
2017-Sep-11 22:30N 51°58' E 004°04'0 0.0
2017-Sep-11 22:00N 51°58' E 004°04'0 0.0
2017-Sep-11 21:30N 51°58' E 004°04'0 0.0
2017-Sep-11 21:00N 51°58' E 004°04'0 0.1
2017-Sep-11 20:30N 51°58' E 004°04'2 3.1
2017-Sep-11 20:01N 51°59' E 004°05'4 8.4
2017-Sep-11 19:31N 51°57' E 004°11'611.0
2017-Sep-11 19:01N 51°54' E 004°18'4 7.5
2017-Sep-11 18:31N 51°53' E 004°24'1 1.2
2017-Sep-11 18:00N 51°53' E 004°25'0 0.0
2017-Sep-11 17:30N 51°53' E 004°25'0 0.0
2017-Sep-11 17:00N 51°53' E 004°25'0 0.0
2017-Sep-11 16:30N 51°53' E 004°25'0 0.0
2017-Sep-11 16:00N 51°53' E 004°25'0 0.0
2017-Sep-11 15:30N 51°53' E 004°25'0 0.0
2017-Sep-11 15:00N 51°53' E 004°25'0 0.0
2017-Sep-11 14:30N 51°53' E 004°25'0 0.0
2017-Sep-11 14:00N 51°53' E 004°25'0 0.0
2017-Sep-11 13:30N 51°53' E 004°25'0 0.0
2017-Sep-11 13:00N 51°53' E 004°25'0 0.0
2017-Sep-11 12:30N 51°53' E 004°25'0 0.0
2017-Sep-11 12:00N 51°53' E 004°25'0 0.0
2017-Sep-11 11:30N 51°53' E 004°25'0 0.0
2017-Sep-11 11:00N 51°53' E 004°25'0 0.0
2017-Sep-11 10:30N 51°53' E 004°25'0 0.0
2017-Sep-11 10:00N 51°53' E 004°25'0 0.0
2017-Sep-11 09:30N 51°53' E 004°25'0 0.0
2017-Sep-11 09:00N 51°53' E 004°25'0 0.0
2017-Sep-11 08:30N 51°53' E 004°25'0 0.0
2017-Sep-11 08:00N 51°53' E 004°25'0 0.0
2017-Sep-11 07:30N 51°53' E 004°25'0 0.0
2017-Sep-11 06:59N 51°53' E 004°25'0 0.0
2017-Sep-11 06:23N 51°53' E 004°25'0 0.0
2017-Sep-11 05:59N 51°53' E 004°25'0 0.0
2017-Sep-11 05:29N 51°53' E 004°25'1 1.8
2017-Sep-11 05:00N 51°53' E 004°24'4 8.6
2017-Sep-11 04:30N 51°54' E 004°17'715.0
2017-Sep-11 04:01N 51°58' E 004°08'815.9
2017-Sep-11 03:31N 51°60' E 003°55'5 9.1
2017-Sep-11 03:00N 52°00' E 003°48'5712.0
2017-Sep-10 22:17N 51°36' E 002°24'412.8
2017-Sep-10 21:59N 51°33' E 002°20'612.4
2017-Sep-10 21:30N 51°29' E 002°14'712.8
2017-Sep-10 20:59N 51°23' E 002°07'712.6
2017-Sep-10 20:26N 51°17' E 002°05'512.6
2017-Sep-10 20:00N 51°13' E 001°59'613.0
2017-Sep-10 19:30N 51°09' E 001°50'713.3
2017-Sep-10 19:00N 51°05' E 001°42'713.7
2017-Sep-10 18:31N 51°01' E 001°34'7014.9
2017-Sep-10 13:51N 50°22' E 000°02'616.7
2017-Sep-10 13:29N 50°20' W 000°07'4718.5
2017-Sep-10 10:57N 50°07' W 001°17'919.7
2017-Sep-10 10:30N 50°04' W 001°30'1020.1
2017-Sep-10 10:01N 50°01' W 001°44'1019.9
2017-Sep-10 09:30N 49°58' W 001°59'5118.0
2017-Sep-10 06:39N 49°41' W 003°14'217.0
2017-Sep-10 06:31N 49°40' W 003°18'  

Dump ship's entire track history